Bend, OR (97701)

2:07 PM PDT on July 28, 2016 (GMT -0700)
East Side Of Bend | | Change Station

Elev 3456 ft 44.06 °N, 121.18 °W | Updated 12 days ago

Clear
Clear
93 °F
Feels Like 93 °F
N
8
Wind Variable Wind from North
Gusts mph

Today
High -- | Low -- °F
--% Chance of Precip.
Yesterday
High -- | Low -- °F
Precip. -- in
Pressure 30.10 in
Visibility 10.0 miles
Clouds Clear
Dew Point 41 °F
Humidity 17%
Rainfall in
Snow Depth Not available.
5:49 AM 8:33 PM
Waning Crescent, 29% visible
METAR KBDN 282055Z AUTO 07007G13KT 10SM CLR 32/05 A3010 RMK AO2
Pressure 30.10 in
Visibility 10.0 miles
Clouds Clear
Dew Point 41 °F
Humidity 17%
Rainfall in
Snow Depth Not available.
5:49 AM 8:33 PM
Waning Crescent, 29% visible
METAR KBDN 282055Z AUTO 07007G13KT 10SM CLR 32/05 A3010 RMK AO2

10-Day Weather Forecast

Almanac

Astronomy

Jul. 28, 2016 Rise Set
Actual Time
Civil Twilight
Nautical Twilight
Astronomical Twilight
Moon
Length of Visible Light
Length of Day
Tomorrow will be .
, % of the Moon is Illuminated

Today's Extremes

State Highs State Lows

Community

WunderPhotos

Upload Photos

1,928,223 photos uploaded!

WunderBlog® & News

Nearby

Air Quality

  Air Quality AQ Index Pollutant
Not available.

Snow Depth

Station Depth Elevation

Earthquake Activity

City Distance Mag. Time & Date
Minimum magnitude displayed is 2.5.

Coastal Water Temperatures

Place Temperature

Stations

Nearby Weather Stations

Station Location Temp. Windchill Dew Point Humidity Wind Precip. Elev Updated Type
                   

Watches & Warnings

There are currently no watches in effect.